Time;durP1;ratioP1;P1;durP2;ratioP2;P2;SDS_P1;SDS_P2;PMS_P1;PMS_P2;Temp;Humidity;BMP_temperature;BMP_pressure;BME280_temperature;BME280_humidity;BME280_pressure;Samples;Min_cycle;Max_cycle;Signal;HPM_P1;HPM_P2
2021/03/07 00:02:13;;;;;;;8.23;2.17;;;;;;;-0.23;100.00;102268.97;4987958;28;20042;-70
2021/03/07 00:04:38;;;;;;;9.70;1.87;;;;;;;-0.21;100.00;102267.38;4996333;28;20590;-70
2021/03/07 00:07:04;;;;;;;6.23;2.37;;;;;;;-0.12;100.00;102262.91;4985795;28;20467;-70
2021/03/07 00:09:30;;;;;;;5.83;1.80;;;;;;;-0.14;100.00;102259.31;4983854;28;20035;-70
2021/03/07 00:11:55;;;;;;;4.23;1.77;;;;;;;0.04;100.00;102259.69;4989303;28;20054;-70
2021/03/07 00:14:23;;;;;;;5.63;1.67;;;;;;;-0.07;100.00;102258.97;4985266;28;20030;-70
2021/03/07 00:16:49;;;;;;;5.23;1.90;;;;;;;-0.27;100.00;102255.78;4993537;28;20034;-71
2021/03/07 00:19:14;;;;;;;8.43;1.80;;;;;;;-0.41;100.00;102253.13;4996537;28;20269;-70
2021/03/07 00:21:40;;;;;;;4.13;1.97;;;;;;;-0.44;100.00;102257.16;5003614;28;20033;-72
2021/03/07 00:24:06;;;;;;;4.73;2.00;;;;;;;-0.58;100.00;102252.72;4993843;28;20138;-71
2021/03/07 00:26:31;;;;;;;5.27;2.17;;;;;;;-0.64;100.00;102248.94;4992677;28;20497;-71
2021/03/07 00:28:57;;;;;;;7.43;2.30;;;;;;;-0.53;100.00;102241.97;4993044;28;20034;-71
2021/03/07 00:31:22;;;;;;;6.63;1.90;;;;;;;-0.62;100.00;102246.47;4997900;28;20045;-71
2021/03/07 00:33:48;;;;;;;5.23;1.87;;;;;;;-0.65;100.00;102230.84;4984832;28;20036;-70
2021/03/07 00:36:13;;;;;;;5.50;2.03;;;;;;;-0.78;100.00;102234.22;4992261;28;20077;-70
2021/03/07 00:38:39;;;;;;;5.67;1.83;;;;;;;-0.94;100.00;102242.50;4995073;28;20497;-70
2021/03/07 00:41:04;;;;;;;9.63;1.80;;;;;;;-1.11;100.00;102236.88;4997031;28;20053;-71
2021/03/07 00:43:30;;;;;;;5.70;1.93;;;;;;;-1.20;100.00;102243.16;5000247;28;20360;-70
2021/03/07 00:45:56;;;;;;;4.90;2.07;;;;;;;-1.15;100.00;102242.59;4992869;28;20046;-70
2021/03/07 00:48:21;;;;;;;7.33;2.00;;;;;;;-0.96;100.00;102238.03;5005800;28;20029;-71
2021/03/07 00:50:46;;;;;;;5.43;2.13;;;;;;;-0.99;100.00;102235.22;5002784;28;20081;-70
2021/03/07 00:53:12;;;;;;;5.40;2.07;;;;;;;-1.11;100.00;102236.88;5002671;28;20030;-71
2021/03/07 00:55:37;;;;;;;9.20;2.47;;;;;;;-1.27;100.00;102233.22;4995783;28;20089;-71
2021/03/07 00:58:03;;;;;;;7.13;2.60;;;;;;;-1.39;100.00;102237.44;4991440;28;20041;-70
2021/03/07 01:00:30;;;;;;;7.33;2.63;;;;;;;-1.53;100.00;102231.28;4994022;28;20720;-70
2021/03/07 01:02:56;;;;;;;8.27;2.90;;;;;;;-1.63;100.00;102239.06;4994961;28;20040;-70
2021/03/07 01:05:27;;;;;;;7.57;3.17;;;;;;;-1.68;100.00;102231.81;4992578;28;20361;-70
2021/03/07 01:07:52;;;;;;;7.50;2.33;;;;;;;-1.71;100.00;102234.13;5005231;28;20040;-71
2021/03/07 01:10:29;;;;;;;7.63;2.30;;;;;;;-1.79;100.00;102231.88;5001937;28;20669;-71
2021/03/07 01:12:55;;;;;;;7.23;2.63;;;;;;;-1.85;100.00;102226.28;5000337;28;20060;-71
2021/03/07 01:15:27;;;;;;;7.73;2.60;;;;;;;-1.61;100.00;102223.78;4998332;28;20301;-71
2021/03/07 01:17:53;;;;;;;10.75;2.67;;;;;;;-1.74;100.00;102219.41;5002760;28;20026;-71
2021/03/07 01:20:19;;;;;;;12.13;3.23;;;;;;;-1.91;100.00;102220.72;4994435;28;20092;-71
2021/03/07 01:22:44;;;;;;;8.73;3.37;;;;;;;-1.89;100.00;102218.25;4996794;28;20042;-70
2021/03/07 01:25:11;;;;;;;6.87;2.87;;;;;;;-1.93;100.00;102214.56;5000495;28;20452;-70
2021/03/07 01:27:37;;;;;;;9.73;3.30;;;;;;;-1.86;100.00;102208.22;4994600;28;20047;-70
2021/03/07 01:30:08;;;;;;;9.30;3.10;;;;;;;-1.93;100.00;102200.88;4996647;28;20285;-70
2021/03/07 01:32:35;;;;;;;6.87;2.83;;;;;;;-1.95;100.00;102197.28;5001172;28;20041;-70
2021/03/07 01:35:01;;;;;;;7.67;2.70;;;;;;;-1.77;100.00;102199.56;4995323;28;20275;-70
2021/03/07 01:37:26;;;;;;;9.47;3.37;;;;;;;-1.37;100.00;102181.09;4992510;28;20281;-70
2021/03/07 01:39:53;;;;;;;10.17;3.20;;;;;;;-1.24;100.00;102191.47;4994176;28;20065;-70
2021/03/07 01:42:20;;;;;;;12.23;3.00;;;;;;;-0.93;100.00;102181.75;4995013;28;20045;-70
2021/03/07 01:44:45;;;;;;;8.80;3.60;;;;;;;-0.85;100.00;102183.19;4995815;28;20288;-70
2021/03/07 01:47:13;;;;;;;10.10;3.00;;;;;;;-1.17;100.00;102174.88;4996005;28;20685;-70
2021/03/07 01:49:39;;;;;;;10.13;3.60;;;;;;;-1.35;100.00;102174.41;4997169;28;20113;-70
2021/03/07 01:52:05;;;;;;;11.33;3.30;;;;;;;-1.08;100.00;102175.53;4997696;28;20307;-70
2021/03/07 01:54:31;;;;;;;12.20;4.10;;;;;;;-1.12;100.00;102169.28;5005390;28;20308;-70
2021/03/07 01:57:00;;;;;;;9.17;3.80;;;;;;;-1.33;100.00;102175.41;4998797;28;20109;-70
2021/03/07 01:59:30;;;;;;;6.67;2.87;;;;;;;-1.45;100.00;102175.44;4999837;28;20277;-70
2021/03/07 02:04:25;;;;;;;8.60;3.00;;;;;;;-1.54;100.00;102167.06;4997925;28;20313;-71
2021/03/07 02:06:50;;;;;;;11.73;3.77;;;;;;;-1.34;100.00;102156.56;4996715;28;20285;-71
2021/03/07 02:09:17;;;;;;;9.20;3.43;;;;;;;-1.17;100.00;102156.91;4994277;28;20486;-69
2021/03/07 02:11:43;;;;;;;10.57;3.10;;;;;;;-1.13;100.00;102140.94;4993851;28;20454;-69
2021/03/07 02:14:09;;;;;;;9.57;3.77;;;;;;;-1.03;100.00;102143.38;4994601;28;20273;-69
2021/03/07 02:16:36;;;;;;;11.17;3.93;;;;;;;-0.97;100.00;102138.66;4994581;28;20045;-69
2021/03/07 02:19:05;;;;;;;9.90;3.80;;;;;;;-1.09;100.00;102131.00;5002817;28;20772;-69
2021/03/07 02:21:34;;;;;;;9.07;3.70;;;;;;;-1.12;100.00;102132.44;4993913;28;20280;-69
2021/03/07 02:24:11;;;;;;;16.50;4.20;;;;;;;-1.19;100.00;102126.88;4993874;28;20685;-69
2021/03/07 02:26:46;;;;;;;11.53;3.53;;;;;;;-1.23;100.00;102124.88;4993309;28;20286;-69
2021/03/07 02:29:13;;;;;;;12.60;3.00;;;;;;;-1.14;100.00;102127.19;4995094;28;20312;-69
2021/03/07 02:31:47;;;;;;;9.90;3.63;;;;;;;-1.17;100.00;102123.53;5001514;28;20280;-69
2021/03/07 02:34:26;;;;;;;7.63;2.63;;;;;;;-1.17;100.00;102128.66;4993855;28;20281;-69
2021/03/07 02:36:56;;;;;;;13.60;3.23;;;;;;;-1.11;100.00;102124.84;4993416;28;20300;-69
2021/03/07 02:39:25;;;;;;;8.83;3.13;;;;;;;-1.06;100.00;102114.94;4994172;28;20284;-69
2021/03/07 02:41:53;;;;;;;15.67;3.73;;;;;;;-1.02;100.00;102119.50;4991827;28;20281;-69
2021/03/07 02:44:20;;;;;;;11.77;2.97;;;;;;;-0.96;100.00;102115.69;4993947;28;20768;-69
2021/03/07 02:46:47;;;;;;;11.33;3.10;;;;;;;-1.20;100.00;102112.28;4996086;28;20277;-69
2021/03/07 02:49:16;;;;;;;10.77;3.33;;;;;;;-1.25;100.00;102108.47;5000897;28;20298;-69
2021/03/07 02:51:43;;;;;;;8.93;2.93;;;;;;;-1.39;100.00;102106.59;4994707;28;20283;-69
2021/03/07 02:54:12;;;;;;;7.90;3.70;;;;;;;-1.39;100.00;102104.03;4994386;28;20268;-69
2021/03/07 02:56:39;;;;;;;13.23;3.67;;;;;;;-1.32;100.00;102102.81;5001251;28;20285;-69
2021/03/07 02:59:09;;;;;;;9.43;3.70;;;;;;;-1.24;100.00;102101.66;4998499;28;20622;-69
2021/03/07 03:01:36;;;;;;;8.87;3.03;;;;;;;-1.11;100.00;102099.19;4992265;28;20274;-69
2021/03/07 03:04:02;;;;;;;13.20;4.33;;;;;;;-1.05;100.00;102089.38;4993380;28;20332;-69
2021/03/07 03:06:29;;;;;;;17.43;3.97;;;;;;;-0.90;100.00;102097.25;4993310;28;20332;-69
2021/03/07 03:08:58;;;;;;;11.73;3.80;;;;;;;-0.90;100.00;102089.53;4993735;28;20339;-69
2021/03/07 03:11:30;;;;;;;8.20;3.57;;;;;;;-0.94;100.00;102085.88;4992468;28;20329;-69
2021/03/07 03:13:56;;;;;;;7.68;3.10;;;;;;;-0.85;100.00;102077.91;4993580;28;20800;-69
2021/03/07 03:16:27;;;;;;;7.77;3.57;;;;;;;-0.82;100.00;102073.00;4994163;28;20034;-69
2021/03/07 03:18:54;;;;;;;10.73;3.80;;;;;;;-0.84;100.00;102059.19;4995402;28;20378;-69
2021/03/07 03:21:19;;;;;;;8.67;3.30;;;;;;;-0.66;100.00;102070.69;4992814;28;20273;-69
2021/03/07 03:23:46;;;;;;;10.20;4.10;;;;;;;-0.66;100.00;102068.13;4992872;28;20273;-69
2021/03/07 03:26:12;;;;;;;9.77;3.87;;;;;;;-0.66;100.00;102065.56;4993657;28;20467;-69
2021/03/07 03:28:38;;;;;;;12.33;3.20;;;;;;;-0.60;100.00;102071.13;4993249;28;20344;-69
2021/03/07 03:31:04;;;;;;;10.00;3.77;;;;;;;-0.56;100.00;102063.63;4991864;28;20041;-69
2021/03/07 03:33:29;;;;;;;8.83;3.67;;;;;;;-0.46;100.00;102054.09;4992811;28;20650;-69
2021/03/07 03:35:55;;;;;;;6.83;3.00;;;;;;;-0.36;100.00;102051.34;4993071;28;20026;-69
2021/03/07 03:38:30;;;;;;;9.00;3.07;;;;;;;-0.22;100.00;102052.28;4992673;28;20026;-69
2021/03/07 03:40:57;;;;;;;15.00;3.97;;;;;;;-0.19;100.00;102052.47;4993257;28;20277;-69
2021/03/07 03:43:24;;;;;;;9.60;3.40;;;;;;;-0.17;100.00;102048.31;4994717;28;20281;-69
2021/03/07 03:45:56;;;;;;;8.43;3.33;;;;;;;-0.16;100.00;102046.63;4998255;28;20296;-69
2021/03/07 03:48:25;;;;;;;9.18;3.60;;;;;;;-0.14;100.00;102053.66;4992384;28;20339;-69
2021/03/07 03:50:51;;;;;;;7.87;3.03;;;;;;;-0.08;100.00;102046.34;4992346;28;20027;-69
2021/03/07 03:53:20;;;;;;;8.30;3.17;;;;;;;-0.08;100.00;102038.66;4999004;28;20296;-69
2021/03/07 03:55:48;;;;;;;6.10;2.73;;;;;;;-0.03;100.00;102044.97;4993026;28;20277;-69
2021/03/07 03:58:16;;;;;;;7.93;3.00;;;;;;;-0.09;100.00;102042.00;4992379;28;20340;-69
2021/03/07 04:00:43;;;;;;;5.80;2.77;;;;;;;-0.10;100.00;102040.22;4991679;28;20293;-69
2021/03/07 04:03:17;;;;;;;8.83;3.27;;;;;;;-0.07;100.00;102035.28;4991880;28;20293;-69
2021/03/07 04:05:50;;;;;;;5.17;2.77;;;;;;;-0.08;100.00;102036.06;4991702;28;20288;-69
2021/03/07 04:08:17;;;;;;;7.57;3.20;;;;;;;-0.06;100.00;102036.16;4997472;28;20271;-69
2021/03/07 04:10:45;;;;;;;9.03;2.57;;;;;;;-0.03;100.00;102042.41;4993534;28;20316;-69
2021/03/07 04:13:14;;;;;;;5.43;2.40;;;;;;;0.03;100.00;102030.75;4990745;28;20281;-69
2021/03/07 04:15:42;;;;;;;4.90;2.10;;;;;;;0.12;100.00;102037.38;4992278;28;20261;-69
2021/03/07 04:18:08;;;;;;;6.47;2.70;;;;;;;0.15;100.00;102036.69;4995049;28;20273;-69
2021/03/07 04:20:34;;;;;;;6.93;2.50;;;;;;;0.19;100.00;102034.41;4996777;28;20269;-69
2021/03/07 04:23:00;;;;;;;7.40;2.20;;;;;;;0.18;100.00;102029.16;4994982;28;20276;-69
2021/03/07 04:25:26;;;;;;;4.63;2.10;;;;;;;0.24;100.00;102033.03;4991862;28;20048;-69
2021/03/07 04:27:52;;;;;;;5.60;2.20;;;;;;;0.26;100.00;102033.13;4994831;28;20474;-69
2021/03/07 04:30:18;;;;;;;5.40;2.13;;;;;;;0.32;100.00;102030.94;4992165;28;20122;-69
2021/03/07 04:32:44;;;;;;;11.13;2.20;;;;;;;0.32;100.00;102030.03;4995508;28;20273;-69
2021/03/07 04:35:12;;;;;;;5.00;2.37;;;;;;;0.34;100.00;102026.78;4995630;28;20271;-69
2021/03/07 04:37:38;;;;;;;6.93;2.17;;;;;;;0.38;100.00;102021.06;4993923;28;20281;-69
2021/03/07 04:40:05;;;;;;;8.50;2.43;;;;;;;0.32;100.00;102018.06;4991509;28;20269;-69
2021/03/07 04:42:31;;;;;;;5.70;2.60;;;;;;;0.29;100.00;102023.03;4998365;28;20030;-69
2021/03/07 04:44:57;;;;;;;8.30;2.33;;;;;;;0.32;100.00;102020.66;4996582;28;20345;-69
2021/03/07 04:47:22;;;;;;;7.43;2.87;;;;;;;0.30;100.00;102024.81;4992099;28;20406;-69
2021/03/07 04:49:48;;;;;;;5.43;2.30;;;;;;;0.29;100.00;102020.47;4999972;28;20070;-68
2021/03/07 04:52:13;;;;;;;6.63;2.40;;;;;;;0.28;100.00;102019.56;5000862;28;20025;-69
2021/03/07 04:54:39;;;;;;;4.83;2.33;;;;;;;0.27;100.00;102027.19;4995825;28;20467;-68
2021/03/07 04:57:05;;;;;;;6.30;2.40;;;;;;;0.30;100.00;102022.22;4992055;28;20113;-68
2021/03/07 04:59:30;;;;;;;7.20;3.30;;;;;;;0.32;100.00;102020.66;4991368;28;20546;-68
2021/03/07 05:01:56;;;;;;;5.23;2.37;;;;;;;0.27;100.00;102015.22;4990643;28;20269;-68
2021/03/07 05:04:22;;;;;;;7.40;3.30;;;;;;;0.27;100.00;102019.47;4994983;28;20042;-68
2021/03/07 05:06:47;;;;;;;12.60;2.83;;;;;;;0.26;100.00;102013.44;4993040;28;20490;-68
2021/03/07 05:09:13;;;;;;;6.03;2.20;;;;;;;0.28;100.00;102016.09;4991376;28;20018;-68
2021/03/07 05:11:39;;;;;;;9.23;2.83;;;;;;;0.30;100.00;102017.09;4992898;28;20034;-68
2021/03/07 05:14:05;;;;;;;6.03;2.60;;;;;;;0.31;100.00;102008.56;4991521;28;20478;-68
2021/03/07 05:16:30;;;;;;;5.10;2.43;;;;;;;0.33;100.00;102012.13;4991553;28;20030;-68
2021/03/07 05:18:56;;;;;;;6.37;2.20;;;;;;;0.39;100.00;102007.38;4991595;28;20400;-69
2021/03/07 05:21:23;;;;;;;8.23;2.70;;;;;;;0.37;100.00;101998.69;4993046;28;20022;-68
2021/03/07 05:23:49;;;;;;;8.73;2.40;;;;;;;0.34;100.00;101993.31;4991242;28;20482;-68
2021/03/07 05:26:15;;;;;;;7.40;2.20;;;;;;;0.39;100.00;102002.25;4994815;28;20364;-69
2021/03/07 05:28:40;;;;;;;7.80;2.27;;;;;;;0.38;100.00;102000.47;4994876;28;20482;-68
2021/03/07 05:31:06;;;;;;;6.30;2.27;;;;;;;0.42;100.00;101992.13;4995701;28;20105;-68
2021/03/07 05:33:31;;;;;;;7.73;2.03;;;;;;;0.46;100.00;101994.09;4994651;28;20034;-68
2021/03/07 05:35:57;;;;;;;6.03;2.80;;;;;;;0.45;100.00;101992.31;4995005;28;20073;-68
2021/03/07 05:38:23;;;;;;;4.80;1.97;;;;;;;0.50;100.00;101990.94;4994901;28;20100;-68
2021/03/07 05:40:49;;;;;;;7.87;1.97;;;;;;;0.56;100.00;101986.16;4995608;28;20018;-68
2021/03/07 05:43:14;;;;;;;4.37;1.70;;;;;;;0.61;100.00;101990.69;4997693;28;20834;-68
2021/03/07 05:45:40;;;;;;;6.27;2.20;;;;;;;0.62;100.00;101989.94;4994457;28;20351;-68
2021/03/07 05:48:06;;;;;;;4.30;1.97;;;;;;;0.66;100.00;102002.19;4995016;28;20213;-68
2021/03/07 05:50:31;;;;;;;8.93;2.33;;;;;;;0.63;100.00;101986.56;4998531;28;20109;-68
2021/03/07 05:52:57;;;;;;;5.40;1.63;;;;;;;0.69;100.00;101992.09;4994694;28;20392;-68
2021/03/07 05:55:27;;;;;;;6.00;2.60;;;;;;;0.71;100.00;101987.91;4994462;28;20025;-68
2021/03/07 05:57:57;;;;;;;6.57;2.47;;;;;;;0.72;100.00;101990.56;4994190;28;20273;-68
2021/03/07 06:00:23;;;;;;;4.87;1.73;;;;;;;0.71;100.00;101991.38;4994521;28;20606;-68
2021/03/07 06:02:49;;;;;;;4.77;1.90;;;;;;;0.70;100.00;101989.59;4994096;28;20300;-68
2021/03/07 06:05:15;;;;;;;7.83;2.40;;;;;;;0.74;100.00;101988.13;4994651;28;20277;-68
2021/03/07 06:07:42;;;;;;;5.60;1.87;;;;;;;0.74;100.00;101990.69;4994249;28;20030;-68
2021/03/07 06:10:18;;;;;;;5.97;2.03;;;;;;;0.75;100.00;101992.47;4994097;28;20376;-68
2021/03/07 06:13:09;;;;;;;5.47;1.90;;;;;;;0.73;100.00;101983.78;4994691;28;20266;-68
2021/03/07 06:15:35;;;;;;;4.63;1.93;;;;;;;0.71;100.00;101991.38;4990399;28;20277;-69
2021/03/07 06:18:10;;;;;;;6.30;1.90;;;;;;;0.72;100.00;101992.25;4994259;28;20680;-68
2021/03/07 06:20:36;;;;;;;4.40;1.73;;;;;;;0.76;100.00;101983.97;4993594;28;20018;-68
2021/03/07 06:23:02;;;;;;;5.37;1.57;;;;;;;0.81;100.00;101987.69;4995499;28;20351;-68
2021/03/07 06:25:30;;;;;;;4.80;1.83;;;;;;;0.86;100.00;101987.19;4993576;28;20036;-68
2021/03/07 06:27:56;;;;;;;4.53;1.90;;;;;;;0.89;100.00;101986.47;4990045;28;20661;-68
2021/03/07 06:30:26;;;;;;;5.27;1.50;;;;;;;0.90;100.00;101983.13;4994401;28;20324;-68
2021/03/07 06:33:01;;;;;;;6.37;1.97;;;;;;;0.93;100.00;101973.00;4993939;28;20280;-68
2021/03/07 06:35:33;;;;;;;3.27;1.43;;;;;;;0.99;100.00;101973.38;4993771;28;20388;-68
2021/03/07 06:38:04;;;;;;;4.30;1.63;;;;;;;1.13;100.00;101977.66;4992963;28;20281;-68
2021/03/07 06:40:39;;;;;;;3.70;1.60;;;;;;;1.13;100.00;101971.63;4998559;28;20113;-68
2021/03/07 06:43:18;;;;;;;5.93;1.80;;;;;;;1.09;100.00;101965.41;4994009;28;20282;-68
2021/03/07 06:45:44;;;;;;;4.27;1.63;;;;;;;1.12;100.00;101965.59;4993395;28;20761;-68
2021/03/07 06:48:10;;;;;;;4.83;1.83;;;;;;;1.16;100.00;101957.22;4994294;28;20274;-69
2021/03/07 06:50:50;;;;;;;5.57;1.60;;;;;;;1.18;100.00;101960.78;4998937;28;20292;-69
2021/03/07 06:53:31;;;;;;;2.47;1.40;;;;;;;1.25;100.00;101961.16;4996479;28;20316;-68
2021/03/07 06:55:57;;;;;;;3.17;1.33;;;;;;;1.32;100.00;101958.13;4992682;28;20313;-68
2021/03/07 06:58:22;;;;;;;3.80;1.27;;;;;;;1.37;100.00;101951.59;4993695;28;20304;-68
2021/03/07 07:00:48;;;;;;;3.43;1.60;;;;;;;1.40;100.00;101946.59;4992701;28;20030;-68
2021/03/07 07:03:15;;;;;;;7.97;2.27;;;;;;;1.45;100.00;101950.31;4992377;28;20038;-69
2021/03/07 07:05:43;;;;;;;6.03;1.60;;;;;;;1.44;100.00;101944.28;5001341;28;20034;-68
2021/03/07 07:08:11;;;;;;;4.60;1.70;;;;;;;1.43;100.00;101952.81;4999109;28;20375;-68
2021/03/07 07:10:52;;;;;;;5.23;1.63;;;;;;;1.47;100.00;101953.91;4992440;28;20289;-68
2021/03/07 07:13:22;;;;;;;6.83;1.70;;;;;;;1.48;100.00;101955.69;4994372;28;20310;-68
2021/03/07 07:16:03;;;;;;;3.87;1.70;;;;;;;1.49;100.00;101952.31;4993223;28;20631;-68
2021/03/07 07:18:34;;;;;;;4.23;1.50;;;;;;;1.45;100.00;101947.75;4993104;28;20773;-68
2021/03/07 07:21:02;;;;;;;4.50;1.80;;;;;;;1.48;100.00;101947.94;4992987;28;20789;-68
2021/03/07 07:23:28;;;;;;;4.83;1.53;;;;;;;1.52;100.00;101952.47;4992495;28;20281;-68
2021/03/07 07:25:54;;;;;;;10.90;1.87;;;;;;;1.56;100.00;101949.25;4992345;28;20270;-68
2021/03/07 07:28:20;;;;;;;4.60;1.60;;;;;;;1.55;100.00;101942.31;4988625;28;20022;-68
2021/03/07 07:31:16;;;;;;;7.13;2.00;;;;;;;1.56;100.00;101954.41;4993328;28;20387;-68
2021/03/07 07:33:55;;;;;;;3.93;1.53;;;;;;;1.57;100.00;101945.88;4970822;28;20277;-68
2021/03/07 07:36:43;;;;;;;3.87;1.53;;;;;;;1.60;100.00;101951.22;4992518;28;20265;-68
2021/03/07 07:39:14;;;;;;;4.67;1.60;;;;;;;1.65;100.00;101943.75;4993373;28;20261;-68
2021/03/07 07:41:40;;;;;;;6.43;1.80;;;;;;;1.71;100.00;101950.16;4992076;28;20269;-68
2021/03/07 07:44:10;;;;;;;4.67;1.60;;;;;;;1.82;100.00;101947.28;5000264;28;20320;-68
2021/03/07 07:46:56;;;;;;;5.23;2.00;;;;;;;1.83;100.00;101938.78;4992901;28;20273;-68
2021/03/07 07:49:35;;;;;;;3.47;1.53;;;;;;;1.86;100.00;101939.81;4987539;28;20289;-68
2021/03/07 07:52:01;;;;;;;3.57;1.63;;;;;;;1.95;100.00;101937.78;4992713;28;20697;-69
2021/03/07 07:54:48;;;;;;;5.80;1.70;;;;;;;1.98;100.00;101942.22;4993397;28;20378;-68
2021/03/07 07:57:35;;;;;;;5.37;1.90;;;;;;;1.95;100.00;101944.63;4991559;28;20479;-68
2021/03/07 08:00:18;;;;;;;9.17;1.77;;;;;;;2.02;100.00;101937.28;4990549;28;20269;-68
2021/03/07 08:02:43;;;;;;;;;;;;;;;2.05;100.00;101941.72;4990066;28;20308;-68
2021/03/07 08:05:29;;;;;;;4.83;1.73;;;;;;;2.08;100.00;101934.19;4992821;28;19917;-69
2021/03/07 08:07:58;;;;;;;5.27;1.83;;;;;;;2.09;99.64;101933.38;4991599;28;20034;-68
2021/03/07 08:10:45;;;;;;;4.57;1.60;;;;;;;2.10;98.82;101930.00;4989075;28;20296;-68
2021/03/07 08:13:28;;;;;;;7.10;1.80;;;;;;;2.13;98.80;101934.44;4992656;28;20300;-68
2021/03/07 08:16:00;;;;;;;3.70;1.77;;;;;;;2.18;98.49;101926.16;4991683;28;20278;-68
2021/03/07 08:18:51;;;;;;;4.18;1.60;;;;;;;2.23;98.00;101924.69;4992224;28;20639;-68
2021/03/07 08:21:22;;;;;;;3.83;1.63;;;;;;;2.32;97.33;101927.78;4990771;28;20117;-68
2021/03/07 08:24:04;;;;;;;2.57;1.20;;;;;;;2.29;96.55;101918.97;4991949;28;20340;-68
2021/03/07 08:26:44;;;;;;;3.90;1.70;;;;;;;2.34;95.96;101915.84;4991924;28;20351;-68
2021/03/07 08:29:39;;;;;;;3.80;1.80;;;;;;;2.40;97.34;101919.56;4984169;28;20289;-69
2021/03/07 08:32:26;;;;;;;3.33;1.60;;;;;;;2.53;96.51;101912.56;4990158;28;20335;-69
2021/03/07 08:34:52;;;;;;;3.13;1.70;;;;;;;2.55;94.50;101915.25;4988285;28;20587;-68
2021/03/07 08:37:17;;;;;;;4.07;1.60;;;;;;;2.55;95.12;101912.66;4989464;28;20292;-69
2021/03/07 08:39:43;;;;;;;5.87;1.70;;;;;;;2.60;94.59;101913.78;4997962;28;20472;-69
2021/03/07 08:42:08;;;;;;;3.70;1.43;;;;;;;2.62;93.88;101913.03;4994804;28;20046;-69
2021/03/07 08:44:34;;;;;;;4.23;1.50;;;;;;;2.66;93.08;101906.34;4995000;28;20498;-69
2021/03/07 08:47:00;;;;;;;3.43;1.57;;;;;;;2.74;94.66;101922.25;4994220;28;20030;-69
2021/03/07 08:49:32;;;;;;;3.07;1.30;;;;;;;2.68;93.29;101907.34;4991509;28;20030;-70
2021/03/07 08:52:03;;;;;;;2.83;1.30;;;;;;;2.72;94.21;101909.25;4991787;28;20034;-69
2021/03/07 08:54:32;;;;;;;4.43;1.50;;;;;;;2.68;92.32;101909.03;4993213;28;20629;-69
2021/03/07 08:57:04;;;;;;;3.87;1.60;;;;;;;2.72;93.02;101903.22;4995936;28;20281;-69
2021/03/07 08:59:30;;;;;;;4.32;1.45;;;;;;;2.82;93.28;101908.94;4991932;28;20285;-68
2021/03/07 09:01:56;;;;;;;4.80;1.40;;;;;;;2.87;93.11;101910.06;4994650;28;20041;-69
2021/03/07 09:04:22;;;;;;;2.97;1.30;;;;;;;2.73;91.12;101899.81;5001016;28;20320;-69
2021/03/07 09:06:48;;;;;;;3.87;1.57;;;;;;;2.81;91.82;101907.16;5004025;28;20186;-68
2021/03/07 09:09:19;;;;;;;3.43;1.40;;;;;;;2.84;91.78;101907.31;4995464;28;20821;-69
2021/03/07 09:11:49;;;;;;;3.33;1.53;;;;;;;2.82;91.75;101902.88;4995864;28;20374;-68
2021/03/07 09:14:16;;;;;;;4.63;1.97;;;;;;;2.82;91.82;101903.78;4997770;28;20288;-68
2021/03/07 09:16:47;;;;;;;4.77;1.50;;;;;;;2.81;91.65;101899.41;4982321;28;20341;-69
2021/03/07 09:19:35;;;;;;;4.77;1.70;;;;;;;2.90;92.41;101893.81;4996807;28;20339;-68
2021/03/07 09:22:23;;;;;;;3.53;1.50;;;;;;;2.96;91.73;101888.09;4992005;28;20389;-69
2021/03/07 09:24:54;;;;;;;4.43;1.50;;;;;;;2.90;91.80;101889.53;4996432;28;20765;-68
2021/03/07 09:27:21;;;;;;;6.27;1.70;;;;;;;2.93;91.37;101889.72;4988202;28;20820;-68
2021/03/07 09:30:14;;;;;;;4.27;1.60;;;;;;;2.94;91.85;101891.50;4993646;28;20300;-68
2021/03/07 09:32:47;;;;;;;2.90;1.40;;;;;;;2.92;91.10;101890.53;4994076;28;20704;-68
2021/03/07 09:35:36;;;;;;;4.20;1.80;;;;;;;3.02;92.55;101888.41;4994354;28;20292;-68
2021/03/07 09:38:11;;;;;;;4.37;1.90;;;;;;;2.98;91.00;101889.94;4990166;28;20269;-68
2021/03/07 09:40:43;;;;;;;4.33;1.70;;;;;;;3.02;90.75;101886.69;4991792;28;20285;-68
2021/03/07 09:43:12;;;;;;;4.03;1.90;;;;;;;3.01;89.99;101884.03;5002182;28;20363;-68
2021/03/07 09:45:40;;;;;;;2.77;1.40;;;;;;;3.03;90.83;101879.84;4998462;28;20042;-68
2021/03/07 09:48:06;;;;;;;3.67;1.60;;;;;;;3.10;90.65;101881.94;4994199;28;20392;-68
2021/03/07 09:50:33;;;;;;;4.63;1.70;;;;;;;3.14;90.09;101876.09;4994437;28;20764;-68
2021/03/07 09:52:58;;;;;;;5.33;1.60;;;;;;;3.18;90.96;101878.94;4994983;28;20627;-68
2021/03/07 09:55:33;;;;;;;3.60;1.57;;;;;;;3.21;90.37;101876.50;4998719;28;20270;-68
2021/03/07 09:58:01;;;;;;;3.73;1.50;;;;;;;3.16;89.80;101877.09;4996327;28;20030;-68
2021/03/07 10:00:29;;;;;;;4.60;1.50;;;;;;;3.13;89.87;101874.31;4990795;28;20788;-68
2021/03/07 10:02:54;;;;;;;3.57;1.63;;;;;;;3.21;90.56;101875.59;4995095;28;20325;-69
2021/03/07 10:05:20;;;;;;;8.60;1.87;;;;;;;3.21;89.97;101883.38;4993685;28;20416;-68
2021/03/07 10:07:45;;;;;;;6.13;2.10;;;;;;;3.27;89.40;101878.53;4999088;28;20060;-69
2021/03/07 10:10:17;;;;;;;8.20;1.60;;;;;;;3.29;89.59;101878.59;4995711;28;20471;-69
2021/03/07 10:12:55;;;;;;;4.35;2.08;;;;;;;3.33;89.09;101888.25;4992992;28;20355;-68
2021/03/07 10:15:26;;;;;;;4.60;2.37;;;;;;;3.40;89.83;101883.47;4991310;28;20045;-69
2021/03/07 10:17:52;;;;;;;5.57;2.00;;;;;;;3.45;89.46;101879.41;4988128;28;20424;-68
2021/03/07 10:20:18;;;;;;;5.87;2.10;;;;;;;3.50;88.79;101874.44;5001873;28;20121;-68
2021/03/07 10:22:46;;;;;;;8.73;1.77;;;;;;;3.42;86.38;101879.28;4993568;28;20084;-69
2021/03/07 10:25:31;;;;;;;4.00;1.63;;;;;;;3.39;86.06;101871.38;4999425;28;20030;-68
2021/03/07 10:28:02;;;;;;;5.33;2.17;;;;;;;3.55;86.75;101870.41;4991059;28;20831;-69
2021/03/07 10:30:34;;;;;;;5.35;2.13;;;;;;;3.58;86.84;101869.66;4990633;28;20304;-68
2021/03/07 10:33:15;;;;;;;3.83;1.90;;;;;;;3.60;86.14;101865.44;4993865;28;20041;-69
2021/03/07 10:36:01;;;;;;;4.67;2.07;;;;;;;3.61;86.50;101859.47;4993363;28;20285;-69
2021/03/07 10:38:27;;;;;;;5.00;2.13;;;;;;;3.70;87.03;101865.09;4984737;28;20333;-69
2021/03/07 10:40:53;;;;;;;4.97;1.97;;;;;;;3.78;87.24;101866.34;4993251;28;20265;-69
2021/03/07 10:43:19;;;;;;;4.33;2.20;;;;;;;3.86;86.43;101865.00;4987472;28;20328;-69
2021/03/07 10:45:44;;;;;;;6.50;1.93;;;;;;;3.65;85.49;101861.41;4984915;28;20037;-69
2021/03/07 10:48:12;;;;;;;4.93;2.03;;;;;;;3.69;85.68;101858.16;4990918;28;20581;-69
2021/03/07 10:50:42;;;;;;;7.27;2.03;;;;;;;3.80;85.49;101860.44;4993237;28;20062;-68
2021/03/07 10:53:07;;;;;;;6.50;2.47;;;;;;;4.09;84.30;101841.06;4983992;28;20381;-69
2021/03/07 10:55:33;;;;;;;4.77;2.13;;;;;;;4.47;82.68;101841.03;4983363;28;20285;-69
2021/03/07 10:57:59;;;;;;;5.33;2.03;;;;;;;4.59;82.03;101845.06;4985915;28;20026;-69
2021/03/07 11:00:24;;;;;;;7.23;2.53;;;;;;;4.58;81.93;101840.69;4983936;28;20033;-69
2021/03/07 11:02:52;;;;;;;5.87;2.27;;;;;;;4.79;82.55;101845.06;4987972;28;20125;-69
2021/03/07 11:05:18;;;;;;;7.57;2.60;;;;;;;4.65;81.03;101832.38;4983696;28;20092;-69
2021/03/07 11:07:44;;;;;;;6.30;2.40;;;;;;;5.01;82.23;101837.38;4985286;28;20582;-69
2021/03/07 11:10:12;;;;;;;7.13;2.40;;;;;;;4.94;79.67;101843.13;4986979;28;20034;-69
2021/03/07 11:12:38;;;;;;;5.80;2.53;;;;;;;4.67;78.99;101830.75;4982205;28;20030;-69
2021/03/07 11:15:05;;;;;;;4.80;2.13;;;;;;;4.87;79.67;101834.22;4980506;28;20048;-69
2021/03/07 11:17:31;;;;;;;5.30;2.33;;;;;;;4.95;77.85;101831.91;4995982;28;20273;-69
2021/03/07 11:19:57;;;;;;;7.37;2.20;;;;;;;4.88;77.42;101835.09;4984363;28;20759;-69
2021/03/07 11:22:23;;;;;;;5.77;2.93;;;;;;;5.21;77.83;101831.34;4982498;28;20042;-69
2021/03/07 11:24:48;;;;;;;6.13;2.60;;;;;;;5.10;76.53;101832.59;4984974;28;20045;-69
2021/03/07 11:27:14;;;;;;;6.53;2.50;;;;;;;5.14;78.49;101824.09;4990433;28;20030;-69
2021/03/07 11:29:39;;;;;;;4.93;2.30;;;;;;;5.47;76.62;101816.81;4995841;28;20032;-69
2021/03/07 11:32:05;;;;;;;4.67;2.00;;;;;;;5.38;75.38;101812.97;4997549;28;20045;-69
2021/03/07 11:34:31;;;;;;;7.63;3.07;;;;;;;5.46;74.95;101812.47;4991666;28;20037;-69
2021/03/07 11:36:56;;;;;;;5.60;2.30;;;;;;;5.39;74.98;101809.56;4990846;28;20026;-69